Time;durP1;ratioP1;P1;durP2;ratioP2;P2;SDS_P1;SDS_P2;PMS_P1;PMS_P2;Temp;Humidity;BMP_temperature;BMP_pressure;BME280_temperature;BME280_humidity;BME280_pressure;Samples;Min_cycle;Max_cycle;Signal;HPM_P1;HPM_P2
2023/05/16 00:01:46;;;;;;;19.13;3.70;;;8.70;99.90;;;;;;4850678;29;20244;-59
2023/05/16 00:04:15;;;;;;;19.73;3.93;;;8.70;99.90;;;;;;4862433;29;20319;-60
2023/05/16 00:06:44;;;;;;;13.83;3.00;;;8.80;99.90;;;;;;4859881;29;20232;-59
2023/05/16 00:09:12;;;;;;;20.17;3.30;;;8.80;99.90;;;;;;4855782;29;20200;-59
2023/05/16 00:11:41;;;;;;;23.67;3.40;;;8.70;99.90;;;;;;4855660;29;20659;-59
2023/05/16 00:14:09;;;;;;;14.87;3.27;;;8.70;99.90;;;;;;4861592;29;20263;-59
2023/05/16 00:16:39;;;;;;;13.40;3.00;;;8.70;99.90;;;;;;4862354;29;20271;-59
2023/05/16 00:19:08;;;;;;;15.57;3.50;;;8.70;99.90;;;;;;4850828;29;20619;-59
2023/05/16 00:21:39;;;;;;;16.57;3.47;;;8.70;99.90;;;;;;4852657;29;20195;-59
2023/05/16 00:24:09;;;;;;;24.27;3.93;;;8.70;99.90;;;;;;4849729;29;20277;-60
2023/05/16 00:26:38;;;;;;;16.73;3.47;;;8.70;99.90;;;;;;4861633;29;20223;-59
2023/05/16 00:29:06;;;;;;;20.73;4.50;;;8.70;99.90;;;;;;4859180;29;20621;-60
2023/05/16 00:31:35;;;;;;;19.53;3.30;;;8.60;99.90;;;;;;4853152;29;20226;-60
2023/05/16 00:34:03;;;;;;;18.97;3.53;;;8.60;99.90;;;;;;4858779;29;20307;-60
2023/05/16 00:36:31;;;;;;;20.07;3.83;;;8.60;99.90;;;;;;4857653;29;20200;-60
2023/05/16 00:39:00;;;;;;;13.23;3.97;;;8.60;99.90;;;;;;4866867;29;20265;-59
2023/05/16 00:41:29;;;;;;;7.90;3.00;;;8.60;99.90;;;;;;4869121;29;20227;-59
2023/05/16 00:43:57;;;;;;;19.17;3.60;;;8.60;99.90;;;;;;4854129;29;20574;-59
2023/05/16 00:46:25;;;;;;;20.80;4.03;;;8.60;99.90;;;;;;4861573;29;20235;-59
2023/05/16 00:48:54;;;;;;;16.30;3.20;;;8.50;99.90;;;;;;4859887;29;20287;-59
2023/05/16 00:51:22;;;;;;;14.40;3.50;;;8.50;99.90;;;;;;4861281;29;20282;-58
2023/05/16 00:53:51;;;;;;;15.40;3.93;;;8.40;99.90;;;;;;4855421;29;20200;-59
2023/05/16 00:56:20;;;;;;;14.50;3.60;;;8.30;99.90;;;;;;4859342;29;20418;-59
2023/05/16 00:58:50;;;;;;;10.50;3.20;;;8.30;99.90;;;;;;4860236;29;21093;-60
2023/05/16 01:04:38;;;;;;;13.17;3.87;;;8.20;99.90;;;;;;5444737;24;20295;-93
2023/05/16 01:07:07;;;;;;;20.93;3.63;;;8.20;99.90;;;;;;4850763;29;20318;-93
2023/05/16 01:13:24;;;;;;;16.63;3.47;;;8.10;99.90;;;;;;4865092;29;20215;-94
2023/05/16 01:16:02;;;;;;;14.53;3.73;;;8.00;99.90;;;;;;4848662;29;20241;-94
2023/05/16 01:18:37;;;;;;;15.77;3.53;;;7.90;99.90;;;;;;4838818;29;20306;-94
2023/05/16 01:21:12;;;;;;;13.40;3.33;;;7.90;99.90;;;;;;4849511;29;20192;-93
2023/05/16 01:23:51;;;;;;;16.40;3.20;;;7.80;99.90;;;;;;4866260;29;20302;-93
2023/05/16 01:26:22;;;;;;;18.80;3.63;;;7.80;99.90;;;;;;4864881;29;20318;-93
2023/05/16 01:28:55;;;;;;;17.07;3.67;;;7.70;99.90;;;;;;4849196;29;20716;-94
2023/05/16 01:31:27;;;;;;;18.23;4.07;;;7.80;99.90;;;;;;4849426;29;20710;-93
2023/05/16 01:33:59;;;;;;;11.87;3.63;;;7.70;99.90;;;;;;4849306;29;20237;-92
2023/05/16 01:36:36;;;;;;;18.03;4.23;;;7.70;99.90;;;;;;4848986;29;20615;-93
2023/05/16 01:39:11;;;;;;;18.67;3.70;;;7.60;99.90;;;;;;4851520;29;20215;-93
2023/05/16 01:41:53;;;;;;;16.77;3.70;;;7.60;99.90;;;;;;4866358;29;20797;-94
2023/05/16 01:44:27;;;;;;;14.27;3.50;;;7.40;99.90;;;;;;4865082;29;20238;-92
2023/05/16 01:47:01;;;;;;;13.43;4.20;;;7.40;99.90;;;;;;4848415;29;20247;-93
2023/05/16 01:49:36;;;;;;;12.90;3.67;;;7.40;99.90;;;;;;4848919;29;20227;-94
2023/05/16 01:52:11;;;;;;;22.17;4.00;;;7.40;99.90;;;;;;4848292;29;20226;-93
2023/05/16 01:54:45;;;;;;;13.80;3.67;;;7.40;99.90;;;;;;4864219;29;20273;-93
2023/05/16 01:57:17;;;;;;;19.93;4.17;;;7.40;99.90;;;;;;4849577;29;20202;-93
2023/05/16 01:59:47;;;;;;;18.00;4.47;;;7.40;99.90;;;;;;4848104;29;20283;-94
2023/05/16 02:02:18;;;;;;;17.13;3.90;;;7.30;99.90;;;;;;4842001;29;20587;-94
2023/05/16 02:04:47;;;;;;;14.23;3.83;;;7.30;99.90;;;;;;4829981;29;20285;-93
2023/05/16 02:07:16;;;;;;;13.93;3.70;;;7.30;99.90;;;;;;4830989;29;20698;-93
2023/05/16 02:09:45;;;;;;;18.97;4.10;;;7.30;99.90;;;;;;4846287;29;20586;-93
2023/05/16 02:12:16;;;;;;;19.20;3.90;;;7.20;99.90;;;;;;4831705;29;20588;-93
2023/05/16 02:14:45;;;;;;;19.23;3.67;;;7.30;99.90;;;;;;4845903;29;20269;-92
2023/05/16 02:17:16;;;;;;;16.33;4.53;;;7.30;99.90;;;;;;4829710;29;20258;-94
2023/05/16 02:23:26;;;;;;;21.90;4.63;;;7.20;99.90;;;;;;4830835;29;20224;-94
2023/05/16 02:25:56;;;;;;;20.97;4.47;;;7.20;99.90;;;;;;4832089;29;20236;-94
2023/05/16 02:28:26;;;;;;;21.67;4.23;;;7.20;99.90;;;;;;4833847;29;20253;-93
2023/05/16 02:30:58;;;;;;;19.13;4.23;;;7.20;99.90;;;;;;4849388;29;20235;-93
2023/05/16 02:33:30;;;;;;;14.20;4.47;;;7.20;99.90;;;;;;4833038;29;20196;-95
2023/05/16 02:35:59;;;;;;;13.07;3.60;;;7.20;99.90;;;;;;4834184;29;20278;-93
2023/05/16 02:38:28;;;;;;;18.83;3.90;;;7.10;99.90;;;;;;4833765;29;20261;-93
2023/05/16 02:40:59;;;;;;;16.83;4.30;;;7.10;99.90;;;;;;4833739;29;20315;-93
2023/05/16 02:43:29;;;;;;;17.63;4.20;;;7.20;99.90;;;;;;4833062;29;20224;-93
2023/05/16 02:45:58;;;;;;;17.97;4.03;;;7.20;99.90;;;;;;4848082;29;20224;-93
2023/05/16 02:48:27;;;;;;;20.27;4.10;;;7.10;99.90;;;;;;4833179;29;20200;-92
2023/05/16 02:50:55;;;;;;;20.67;3.90;;;7.10;99.90;;;;;;4832491;29;20238;-93
2023/05/16 02:53:24;;;;;;;15.50;4.07;;;7.00;99.90;;;;;;4832306;29;20234;-92
2023/05/16 02:55:53;;;;;;;19.77;3.97;;;7.00;99.90;;;;;;4848331;29;20323;-92
2023/05/16 02:58:21;;;;;;;15.30;4.03;;;6.90;99.90;;;;;;4833704;29;20239;-92
2023/05/16 03:00:51;;;;;;;16.87;3.80;;;7.00;99.90;;;;;;4833944;29;20242;-93
2023/05/16 03:03:20;;;;;;;18.23;3.67;;;6.90;99.90;;;;;;4835192;29;20558;-92
2023/05/16 03:05:51;;;;;;;21.53;3.60;;;6.90;99.90;;;;;;4820330;29;20244;-92
2023/05/16 03:08:19;;;;;;;17.07;4.30;;;6.90;99.90;;;;;;4814701;29;20319;-91
2023/05/16 03:10:48;;;;;;;11.67;3.50;;;6.90;99.90;;;;;;4829239;29;20229;-93
2023/05/16 03:13:17;;;;;;;19.80;3.87;;;7.00;99.90;;;;;;4813696;29;20228;-92
2023/05/16 03:15:48;;;;;;;19.67;4.00;;;7.00;99.90;;;;;;4828887;29;20240;-92
2023/05/16 03:18:19;;;;;;;15.47;4.23;;;6.90;99.90;;;;;;4814047;29;20199;-93
2023/05/16 03:20:47;;;;;;;20.80;4.67;;;6.80;99.90;;;;;;4814707;29;20707;-92
2023/05/16 03:23:16;;;;;;;14.53;4.67;;;6.70;99.90;;;;;;4814135;29;20770;-92
2023/05/16 03:25:46;;;;;;;25.97;5.83;;;6.70;99.90;;;;;;4814555;29;20236;-92
2023/05/16 03:28:14;;;;;;;15.57;4.93;;;6.70;99.90;;;;;;4814122;29;20237;-93
2023/05/16 03:30:43;;;;;;;24.70;6.00;;;6.70;99.90;;;;;;4814783;29;20225;-92
2023/05/16 03:33:15;;;;;;;21.90;6.37;;;6.60;99.90;;;;;;4815019;29;20207;-92
2023/05/16 03:35:46;;;;;;;21.83;6.57;;;6.60;99.90;;;;;;4814837;29;20228;-92
2023/05/16 03:38:16;;;;;;;17.77;6.00;;;6.60;99.90;;;;;;4832624;29;20699;-92
2023/05/16 03:40:45;;;;;;;24.03;6.30;;;6.60;99.90;;;;;;4846663;29;20236;-92
2023/05/16 03:43:16;;;;;;;18.97;6.47;;;6.60;99.90;;;;;;4846806;29;20220;-91
2023/05/16 03:45:44;;;;;;;25.93;6.77;;;6.60;99.90;;;;;;4865016;29;20227;-92
2023/05/16 03:48:13;;;;;;;24.97;8.23;;;6.60;99.90;;;;;;4847398;29;20225;-92
2023/05/16 03:50:44;;;;;;;29.90;9.73;;;6.60;99.90;;;;;;4834637;29;20280;-91
2023/05/16 03:53:13;;;;;;;25.63;9.57;;;6.50;99.90;;;;;;4831842;29;20326;-92
2023/05/16 03:55:41;;;;;;;28.10;9.27;;;6.50;99.90;;;;;;4831390;29;20235;-92
2023/05/16 03:58:11;;;;;;;35.37;10.47;;;6.50;99.90;;;;;;4831370;29;20587;-93
2023/05/16 04:00:39;;;;;;;28.77;9.80;;;6.50;99.90;;;;;;4830982;29;20216;-92
2023/05/16 04:03:08;;;;;;;32.80;10.27;;;6.50;99.90;;;;;;4831912;29;20212;-93
2023/05/16 04:05:37;;;;;;;33.80;9.77;;;6.50;99.90;;;;;;4842019;29;20258;-92
2023/05/16 04:08:08;;;;;;;30.67;10.63;;;6.50;99.90;;;;;;4865748;29;20263;-92
2023/05/16 04:10:36;;;;;;;29.53;9.47;;;6.50;99.90;;;;;;4865411;29;20231;-92
2023/05/16 04:13:09;;;;;;;33.10;10.20;;;6.50;99.90;;;;;;4849526;29;20235;-91
2023/05/16 04:15:40;;;;;;;31.00;10.40;;;6.60;99.90;;;;;;4848550;29;20191;-92
2023/05/16 04:21:51;;;;;;;38.10;10.60;;;6.60;99.90;;;;;;4864384;29;20231;-93
2023/05/16 04:24:25;;;;;;;35.97;11.30;;;6.60;99.90;;;;;;4849747;29;20203;-91
2023/05/16 04:26:53;;;;;;;31.03;10.63;;;6.60;99.90;;;;;;4849737;29;20208;-93
2023/05/16 04:29:22;;;;;;;31.30;9.13;;;6.70;99.90;;;;;;4849970;29;20227;-92
2023/05/16 04:31:51;;;;;;;39.93;9.87;;;6.70;99.90;;;;;;4865825;29;20231;-92
2023/05/16 04:34:21;;;;;;;31.60;10.73;;;6.70;99.90;;;;;;4850248;29;20246;-92
2023/05/16 04:36:50;;;;;;;37.50;11.70;;;6.80;99.90;;;;;;4849820;29;20239;-93
2023/05/16 04:39:26;;;;;;;28.00;10.57;;;6.80;99.90;;;;;;4850524;29;20203;-92
2023/05/16 04:41:58;;;;;;;30.63;11.13;;;6.80;99.90;;;;;;4849638;29;20226;-92
2023/05/16 04:44:28;;;;;;;30.30;10.83;;;6.90;99.90;;;;;;4848636;29;20612;-93
2023/05/16 04:46:57;;;;;;;33.33;11.37;;;6.90;99.90;;;;;;4848893;29;20228;-92
2023/05/16 04:49:35;;;;;;;35.53;10.93;;;7.00;99.90;;;;;;4848004;29;20243;-92
2023/05/16 04:55:46;;;;;;;36.13;11.13;;;7.00;99.90;;;;;;4847837;29;20230;-93
2023/05/16 04:58:14;;;;;;;32.53;11.93;;;7.10;99.90;;;;;;4862354;29;20241;-93
2023/05/16 05:00:43;;;;;;;35.37;11.60;;;7.20;99.90;;;;;;4846563;29;20262;-93
2023/05/16 05:03:11;;;;;;;34.00;10.90;;;7.20;99.90;;;;;;4847508;29;20212;-93
2023/05/16 05:05:40;;;;;;;28.60;9.93;;;7.30;99.90;;;;;;4846338;29;20291;-91
2023/05/16 05:08:12;;;;;;;24.43;9.80;;;7.40;99.90;;;;;;4846764;29;20234;-91
2023/05/16 05:10:40;;;;;;;26.00;9.93;;;7.40;99.90;;;;;;4861500;29;20286;-93
2023/05/16 05:13:11;;;;;;;29.77;9.57;;;7.50;99.90;;;;;;4846540;29;20231;-93
2023/05/16 05:19:20;;;;;;;25.63;8.73;;;7.70;99.90;;;;;;4848726;29;20222;-91
2023/05/16 05:21:49;;;;;;;27.03;8.83;;;7.80;99.90;;;;;;4849449;29;20259;-90
2023/05/16 05:28:21;;;;;;;26.10;8.13;;;8.00;99.90;;;;;;4744633;30;20660;-92
2023/05/16 05:34:30;;;;;;;23.30;7.53;;;8.30;99.90;;;;;;4793070;29;20225;-92
2023/05/16 05:36:59;;;;;;;25.77;8.30;;;8.40;99.90;;;;;;4807550;29;20312;-92
2023/05/16 05:43:08;;;;;;;30.47;7.73;;;8.50;99.90;;;;;;4791942;29;20244;-92
2023/05/16 05:45:38;;;;;;;21.50;7.20;;;8.70;99.90;;;;;;4792311;29;20201;-93
2023/05/16 05:51:50;;;;;;;20.87;6.90;;;8.90;99.20;;;;;;4790602;29;20625;-92
2023/05/16 05:54:19;;;;;;;20.00;6.27;;;9.00;93.70;;;;;;4792688;29;20229;-92
2023/05/16 05:56:48;;;;;;;20.73;6.00;;;9.10;95.00;;;;;;4806379;29;20225;-93
2023/05/16 05:59:16;;;;;;;15.73;5.57;;;9.20;94.50;;;;;;4808735;29;20257;-93
2023/05/16 06:01:46;;;;;;;13.53;4.90;;;9.40;90.30;;;;;;4846922;29;20228;-93
2023/05/16 06:07:57;;;;;;;17.17;5.40;;;9.60;90.30;;;;;;4845382;29;20242;-91
2023/05/16 06:10:25;;;;;;;17.53;5.43;;;9.80;74.70;;;;;;4846279;29;20283;-92
2023/05/16 06:12:54;;;;;;;15.67;5.03;;;9.80;79.70;;;;;;4861204;29;20235;-93
2023/05/16 06:15:22;;;;;;;11.47;4.23;;;9.90;69.60;;;;;;4846331;29;20221;-91
2023/05/16 06:17:53;;;;;;;15.37;4.73;;;10.00;65.30;;;;;;4845917;29;20207;-92
2023/05/16 06:20:22;;;;;;;18.77;4.60;;;10.20;64.00;;;;;;4846289;29;20241;-93
2023/05/16 06:22:50;;;;;;;14.23;4.57;;;10.30;62.50;;;;;;4846081;29;20642;-93
2023/05/16 06:25:19;;;;;;;17.43;5.00;;;10.30;56.20;;;;;;4861840;29;20235;-91
2023/05/16 06:27:48;;;;;;;11.67;4.40;;;10.40;56.30;;;;;;4845812;29;20223;-93
2023/05/16 06:30:16;;;;;;;14.77;3.67;;;10.60;54.90;;;;;;4846793;29;20554;-93
2023/05/16 06:32:45;;;;;;;12.20;2.77;;;10.70;46.80;;;;;;4846621;29;20251;-93
2023/05/16 06:35:15;;;;;;;10.77;2.60;;;10.90;31.00;;;;;;4846672;29;20870;-92
2023/05/16 06:37:44;;;;;;;8.50;2.50;;;11.00;26.30;;;;;;4846362;29;20320;-92
2023/05/16 06:40:13;;;;;;;7.03;2.33;;;11.00;14.50;;;;;;4846115;29;20227;-92
2023/05/16 06:42:42;;;;;;;10.53;2.80;;;11.00;17.60;;;;;;4846259;29;20219;-92
2023/05/16 06:45:11;;;;;;;9.07;2.83;;;11.00;16.80;;;;;;4862462;29;20200;-91
2023/05/16 06:47:40;;;;;;;15.20;3.10;;;11.10;15.80;;;;;;4846615;29;20231;-93
2023/05/16 06:50:10;;;;;;;10.90;2.53;;;11.20;15.00;;;;;;4863213;29;20235;-91
2023/05/16 06:52:40;;;;;;;6.23;2.40;;;11.20;6.60;;;;;;4847693;29;20235;-93
2023/05/16 06:55:11;;;;;;;9.33;2.37;;;11.30;4.30;;;;;;4846320;29;20233;-91
2023/05/16 06:57:39;;;;;;;8.10;2.13;;;11.50;1.00;;;;;;4846271;29;20282;-91
2023/05/16 07:00:11;;;;;;;8.30;2.47;;;11.70;1.00;;;;;;4847370;29;20294;-91
2023/05/16 07:02:40;;;;;;;6.70;2.13;;;11.80;1.00;;;;;;4846905;29;20299;-91
2023/05/16 07:05:09;;;;;;;8.37;2.63;;;12.00;1.00;;;;;;4847104;29;20255;-92
2023/05/16 07:07:39;;;;;;;8.00;2.13;;;12.10;1.00;;;;;;4845303;29;20255;-91
2023/05/16 07:10:08;;;;;;;7.50;2.10;;;12.30;1.00;;;;;;4845681;29;20227;-92
2023/05/16 07:12:41;;;;;;;11.13;2.50;;;12.60;1.00;;;;;;4847754;29;20202;-90
2023/05/16 07:15:11;;;;;;;4.23;1.67;;;13.00;1.00;;;;;;4864431;29;20565;-93
2023/05/16 07:18:16;;;;;;;7.17;1.90;;;13.10;1.00;;;;;;4864254;29;20698;-92
2023/05/16 07:24:27;;;;;;;8.60;2.03;;;13.00;1.00;;;;;;4849030;29;20228;-91
2023/05/16 07:26:57;;;;;;;5.87;1.70;;;13.00;1.00;;;;;;4849136;29;20310;-92
2023/05/16 07:29:26;;;;;;;5.83;1.77;;;13.10;1.00;;;;;;4849221;29;20239;-92
2023/05/16 07:31:57;;;;;;;7.10;2.03;;;13.10;1.00;;;;;;4848891;29;20320;-93
2023/05/16 07:34:25;;;;;;;5.17;1.87;;;13.20;1.00;;;;;;4850258;29;20229;-92
2023/05/16 07:36:54;;;;;;;6.13;1.90;;;13.00;1.00;;;;;;4851297;29;20231;-92
2023/05/16 07:39:23;;;;;;;5.50;2.07;;;12.80;1.00;;;;;;4853603;29;20201;-92
2023/05/16 07:41:53;;;;;;;6.33;2.00;;;12.60;1.00;;;;;;4853872;29;20202;-91
2023/05/16 07:44:21;;;;;;;6.17;1.90;;;12.60;1.00;;;;;;4853447;29;20235;-92
2023/05/16 07:46:50;;;;;;;7.50;1.90;;;12.80;1.00;;;;;;4851260;29;20236;-92
2023/05/16 07:49:18;;;;;;;5.57;1.90;;;13.00;1.00;;;;;;4850027;29;20255;-92
2023/05/16 07:51:49;;;;;;;7.10;2.00;;;13.20;1.00;;;;;;4848753;29;20229;-91
2023/05/16 07:54:18;;;;;;;7.50;1.97;;;13.50;1.00;;;;;;4848758;29;20194;-92
2023/05/16 07:56:47;;;;;;;7.17;2.17;;;13.70;1.00;;;;;;4848912;29;20261;-92
2023/05/16 07:59:17;;;;;;;3.43;1.70;;;14.00;1.00;;;;;;4848978;29;20237;-92
2023/05/16 08:01:45;;;;;;;2.60;1.40;;;14.20;1.00;;;;;;4848565;29;20228;-92
2023/05/16 08:04:14;;;;;;;6.10;1.80;;;14.40;99.90;;;;;;4847989;29;20323;-91
2023/05/16 08:06:42;;;;;;;4.17;1.23;;;14.50;99.90;;;;;;4862541;29;20243;-92
2023/05/16 08:09:11;;;;;;;7.00;1.83;;;14.80;99.90;;;;;;4848012;29;20195;-92
2023/05/16 08:11:40;;;;;;;5.40;1.37;;;14.90;99.90;;;;;;4847995;29;20230;-91
2023/05/16 08:14:08;;;;;;;6.13;1.80;;;14.80;99.90;;;;;;4847281;29;20227;-93
2023/05/16 08:16:39;;;;;;;5.60;1.83;;;14.80;99.90;;;;;;4862995;29;20242;-91
2023/05/16 08:19:07;;;;;;;6.27;1.90;;;14.80;91.90;;;;;;4863144;29;20262;-93
2023/05/16 08:21:39;;;;;;;5.57;1.80;;;14.50;87.10;;;;;;4848061;29;20240;-91
2023/05/16 08:24:10;;;;;;;3.70;1.60;;;14.50;1.00;;;;;;4846606;29;20219;-93
2023/05/16 08:26:38;;;;;;;5.17;1.90;;;14.20;67.20;;;;;;4847704;29;20239;-92
2023/05/16 08:29:07;;;;;;;6.60;3.00;;;14.30;99.90;;;;;;4847231;29;20231;-91
2023/05/16 08:31:35;;;;;;;3.53;1.93;;;14.60;99.90;;;;;;4847576;29;20231;-92
2023/05/16 08:34:06;;;;;;;3.97;1.53;;;14.80;1.00;;;;;;4847061;29;20300;-92
2023/05/16 08:36:35;;;;;;;1.67;1.10;;;15.00;1.00;;;;;;4846658;29;20192;-92
2023/05/16 08:39:06;;;;;;;3.87;1.67;;;15.10;76.50;;;;;;4847531;29;20196;-92
2023/05/16 08:45:17;;;;;;;6.93;1.90;;;15.90;1.00;;;;;;4847485;29;20271;-92
2023/05/16 08:47:50;;;;;;;3.90;1.47;;;16.70;99.90;;;;;;4862602;29;20228;-92
2023/05/16 08:50:21;;;;;;;4.90;1.53;;;16.50;99.90;;;;;;4847094;29;20231;-93
2023/05/16 08:52:52;;;;;;;8.37;1.60;;;16.30;99.90;;;;;;4862293;29;20227;-92
2023/05/16 08:55:26;;;;;;;6.43;1.83;;;16.50;99.90;;;;;;4846680;29;20236;-92
2023/05/16 08:57:56;;;;;;;3.63;1.37;;;16.30;1.00;;;;;;4846637;29;20310;-91
2023/05/16 09:00:26;;;;;;;3.13;1.30;;;16.50;99.90;;;;;;4846576;29;20682;-92
2023/05/16 09:02:58;;;;;;;6.97;1.33;;;16.80;1.00;;;;;;4862439;29;20216;-92
2023/05/16 09:05:30;;;;;;;4.40;1.50;;;16.80;1.00;;;;;;4862252;29;20237;-91
2023/05/16 09:07:59;;;;;;;3.40;1.67;;;17.40;99.90;;;;;;4846180;29;20241;-91
2023/05/16 09:10:27;;;;;;;2.93;1.37;;;18.00;39.90;;;;;;4846446;29;20726;-92
2023/05/16 09:12:56;;;;;;;4.47;1.53;;;18.20;99.90;;;;;;4861420;29;20310;-92
2023/05/16 09:15:32;;;;;;;4.63;1.73;;;18.40;99.90;;;;;;4846711;29;20651;-93
2023/05/16 09:18:01;;;;;;;2.47;1.43;;;19.10;99.90;;;;;;4846552;29;20195;-92
2023/05/16 09:20:31;;;;;;;5.20;1.20;;;19.20;99.90;;;;;;4846414;29;20227;-92
2023/05/16 09:23:00;;;;;;;2.37;1.33;;;18.90;99.90;;;;;;4846055;29;20230;-92
2023/05/16 09:25:30;;;;;;;5.07;1.53;;;19.20;99.90;;;;;;4846346;29;20235;-91
2023/05/16 09:28:03;;;;;;;1.53;1.40;;;20.00;99.90;;;;;;4845990;29;20231;-93
2023/05/16 09:30:33;;;;;;;3.07;1.70;;;19.80;99.90;;;;;;4862205;29;20270;-93
2023/05/16 09:33:02;;;;;;;6.43;1.33;;;20.00;99.90;;;;;;4846364;29;20250;-92
2023/05/16 09:35:32;;;;;;;3.80;1.40;;;19.50;99.90;;;;;;4846166;29;20241;-93
2023/05/16 09:38:04;;;;;;;4.93;1.50;;;18.70;99.90;;;;;;4846074;29;20270;-94
2023/05/16 09:40:32;;;;;;;1.57;1.37;;;18.40;99.90;;;;;;4846042;29;20233;-92
2023/05/16 09:43:05;;;;;;;4.20;1.67;;;18.70;99.90;;;;;;4861027;29;20242;-93
2023/05/16 09:45:37;;;;;;;4.13;1.37;;;18.30;99.90;;;;;;4846694;29;20191;-93
2023/05/16 09:48:07;;;;;;;3.27;1.40;;;18.10;99.90;;;;;;4846475;29;20246;-93
2023/05/16 09:50:38;;;;;;;3.67;1.20;;;18.60;99.90;;;;;;4861940;29;20231;-93
2023/05/16 09:53:07;;;;;;;5.40;1.50;;;19.50;99.90;;;;;;4845650;29;20653;-92
2023/05/16 09:55:35;;;;;;;5.80;1.73;;;20.30;99.90;;;;;;4861054;29;20231;-93
2023/05/16 09:58:04;;;;;;;3.67;1.70;;;20.40;99.90;;;;;;4845590;29;20238;-92
2023/05/16 10:00:34;;;;;;;7.43;1.40;;;20.80;99.90;;;;;;4846250;29;20215;-93
2023/05/16 10:03:03;;;;;;;3.30;1.30;;;21.00;99.90;;;;;;4846274;29;20689;-93
2023/05/16 10:05:34;;;;;;;3.10;1.40;;;20.00;99.90;;;;;;4846153;29;20263;-92
2023/05/16 10:08:06;;;;;;;5.87;1.43;;;19.50;99.90;;;;;;4845351;29;20240;-93
2023/05/16 10:10:37;;;;;;;3.13;1.50;;;19.40;99.90;;;;;;4845675;29;20232;-91
2023/05/16 10:13:08;;;;;;;4.07;1.50;;;19.60;99.90;;;;;;4861387;29;20235;-93
2023/05/16 10:15:38;;;;;;;1.73;1.30;;;20.10;99.90;;;;;;4845569;29;20203;-92
2023/05/16 10:18:11;;;;;;;3.37;1.50;;;20.70;99.90;;;;;;4846342;29;20243;-93
2023/05/16 10:20:42;;;;;;;4.73;1.90;;;20.90;99.90;;;;;;4846105;29;20303;-94
2023/05/16 10:23:16;;;;;;;5.00;2.30;;;20.20;99.90;;;;;;4861218;29;20235;-92
2023/05/16 10:25:47;;;;;;;3.20;1.60;;;19.40;99.90;;;;;;4845905;29;20241;-93
2023/05/16 10:28:16;;;;;;;5.60;1.60;;;19.60;99.90;;;;;;4845820;29;20244;-92
2023/05/16 10:30:46;;;;;;;5.50;1.80;;;19.40;99.90;;;;;;4845495;29;20227;-92
2023/05/16 10:33:17;;;;;;;2.37;1.13;;;18.80;99.90;;;;;;4845796;29;20198;-91
2023/05/16 10:35:46;;;;;;;4.10;1.50;;;18.40;99.90;;;;;;4846128;29;20233;-92
2023/05/16 10:38:18;;;;;;;2.37;1.40;;;18.80;99.90;;;;;;4860740;29;20245;-91
2023/05/16 10:40:48;;;;;;;2.77;1.63;;;19.30;99.90;;;;;;4845123;29;20242;-92
2023/05/16 10:43:25;;;;;;;5.47;1.90;;;20.00;99.90;;;;;;4845323;29;20238;-93
2023/05/16 10:45:58;;;;;;;2.77;1.40;;;20.50;99.90;;;;;;4861018;29;20234;-93
2023/05/16 10:48:33;;;;;;;5.00;1.90;;;20.20;99.90;;;;;;4864124;29;20293;-91
2023/05/16 10:54:50;;;;;;;3.10;1.37;;;19.40;99.90;;;;;;4848852;29;20243;-92
2023/05/16 10:57:22;;;;;;;2.30;1.20;;;19.10;99.90;;;;;;4864640;29;20716;-93
2023/05/16 10:59:52;;;;;;;4.63;1.70;;;19.50;99.90;;;;;;4849318;29;20648;-93
2023/05/16 11:02:27;;;;;;;7.93;1.50;;;19.90;99.90;;;;;;4848620;29;20242;-92
2023/05/16 11:04:59;;;;;;;2.20;1.00;;;20.10;99.90;;;;;;4849502;29;20237;-93
2023/05/16 11:07:33;;;;;;;2.43;1.17;;;19.90;99.90;;;;;;4848415;29;20245;-91
2023/05/16 11:10:10;;;;;;;2.60;1.10;;;19.90;99.90;;;;;;4864005;29;20225;-92
2023/05/16 11:12:44;;;;;;;3.90;1.60;;;19.70;99.90;;;;;;4848469;29;20233;-93
2023/05/16 11:15:21;;;;;;;2.23;1.50;;;19.10;99.90;;;;;;4849064;29;20225;-92
2023/05/16 11:17:50;;;;;;;3.53;1.57;;;18.40;99.90;;;;;;4848494;29;20237;-94
2023/05/16 11:20:26;;;;;;;5.97;1.80;;;18.10;99.90;;;;;;4864354;29;20694;-92
2023/05/16 11:23:22;;;;;;;2.53;1.73;;;17.70;99.90;;;;;;4848187;29;20242;-92
2023/05/16 11:25:56;;;;;;;3.93;1.53;;;17.20;99.90;;;;;;4848431;29;20239;-92
2023/05/16 11:28:26;;;;;;;6.17;1.97;;;17.40;99.90;;;;;;4863694;29;20231;-93
2023/05/16 11:30:56;;;;;;;3.87;1.87;;;17.90;99.90;;;;;;4848146;29;20223;-93
2023/05/16 11:33:26;;;;;;;6.63;1.60;;;18.60;99.90;;;;;;4848196;29;20195;-93
2023/05/16 11:36:05;;;;;;;3.23;1.70;;;19.00;99.90;;;;;;4848933;29;20219;-92
2023/05/16 11:38:43;;;;;;;3.50;1.43;;;19.10;99.90;;;;;;4848503;29;20606;-93
2023/05/16 11:41:15;;;;;;;1.97;1.40;;;18.60;99.90;;;;;;4848581;29;20231;-94
2023/05/16 11:43:46;;;;;;;2.23;1.37;;;18.40;99.90;;;;;;4848124;29;20279;-92
2023/05/16 11:46:16;;;;;;;2.97;1.50;;;18.70;99.90;;;;;;4863547;29;20231;-92
2023/05/16 11:48:46;;;;;;;7.13;1.63;;;18.90;99.90;;;;;;4847974;29;20360;-91
2023/05/16 11:51:19;;;;;;;3.87;1.67;;;19.00;99.90;;;;;;4848361;29;20298;-93
2023/05/16 11:53:50;;;;;;;4.40;1.53;;;19.20;99.90;;;;;;4848064;29;20219;-93
2023/05/16 11:56:22;;;;;;;3.90;1.37;;;19.20;99.90;;;;;;4863578;29;20227;-94
2023/05/16 11:58:50;;;;;;;2.90;1.17;;;19.10;99.90;;;;;;4847990;29;20310;-91
2023/05/16 12:05:03;;;;;;;4.20;1.50;;;19.20;99.90;;;;;;4848194;29;20226;-93
2023/05/16 12:07:31;;;;;;;3.03;1.60;;;18.70;99.90;;;;;;4864860;29;20320;-94
2023/05/16 12:10:06;;;;;;;3.50;1.33;;;18.90;99.90;;;;;;4865344;29;20227;-91
2023/05/16 12:12:37;;;;;;;9.90;1.50;;;18.90;99.90;;;;;;4849054;29;20286;-93
2023/05/16 12:15:08;;;;;;;1.83;1.37;;;19.00;99.90;;;;;;4849740;29;20251;-91
2023/05/16 12:17:37;;;;;;;2.53;1.50;;;19.00;99.90;;;;;;4864617;29;20237;-93
2023/05/16 12:23:48;;;;;;;2.33;1.30;;;18.80;99.90;;;;;;4848002;29;20251;-93
2023/05/16 12:26:25;;;;;;;5.20;1.60;;;18.80;99.90;;;;;;4848551;29;20233;-92
2023/05/16 12:28:59;;;;;;;5.10;1.53;;;18.80;99.90;;;;;;4848000;29;20231;-92
2023/05/16 12:35:11;;;;;;;3.40;1.60;;;18.40;99.90;;;;;;4847554;29;20778;-93
2023/05/16 12:37:43;;;;;;;2.93;1.50;;;18.20;99.90;;;;;;4847563;29;20292;-92
2023/05/16 12:40:12;;;;;;;2.93;1.40;;;18.20;99.90;;;;;;4847889;29;20231;-91
2023/05/16 12:42:44;;;;;;;4.40;1.60;;;18.20;99.90;;;;;;4847214;29;20279;-92
2023/05/16 12:45:18;;;;;;;5.47;1.57;;;18.40;99.90;;;;;;4847912;29;20203;-91
2023/05/16 12:47:46;;;;;;;2.50;1.57;;;18.60;99.90;;;;;;4847321;29;20291;-93
2023/05/16 12:50:16;;;;;;;2.20;1.40;;;18.60;99.90;;;;;;4847356;29;20730;-92
2023/05/16 12:52:49;;;;;;;3.97;1.60;;;18.70;99.90;;;;;;4846830;29;20231;-91
2023/05/16 12:55:18;;;;;;;1.70;1.30;;;18.80;99.90;;;;;;4847396;29;20255;-93
2023/05/16 12:57:48;;;;;;;2.30;1.23;;;18.80;99.90;;;;;;4847031;29;20730;-92
2023/05/16 13:00:20;;;;;;;1.43;1.33;;;18.80;99.90;;;;;;4847404;29;20327;-93
2023/05/16 13:02:49;;;;;;;2.03;1.37;;;18.80;99.90;;;;;;4846893;29;20661;-93
2023/05/16 13:05:19;;;;;;;7.27;1.67;;;18.70;99.90;;;;;;4846760;29;20234;-94
2023/05/16 13:07:50;;;;;;;4.03;1.60;;;18.70;99.90;;;;;;4846793;29;20245;-92
2023/05/16 13:10:21;;;;;;;6.67;1.63;;;18.90;99.90;;;;;;4846194;29;20231;-93
2023/05/16 13:12:50;;;;;;;3.47;1.50;;;19.10;99.90;;;;;;4846426;29;20536;-91
2023/05/16 13:15:20;;;;;;;3.50;1.40;;;19.20;99.90;;;;;;4862005;29;20230;-92
2023/05/16 13:17:48;;;;;;;2.20;1.70;;;19.10;99.90;;;;;;4847035;29;20557;-92
2023/05/16 13:20:17;;;;;;;2.73;1.57;;;19.30;99.90;;;;;;4846104;29;20575;-92
2023/05/16 13:22:46;;;;;;;3.37;1.60;;;19.40;99.90;;;;;;4861866;29;20296;-91
2023/05/16 13:25:15;;;;;;;4.03;1.50;;;19.40;99.90;;;;;;4846868;29;20223;-92
2023/05/16 13:27:43;;;;;;;3.50;1.50;;;19.40;99.90;;;;;;4862659;29;20231;-92
2023/05/16 13:30:12;;;;;;;3.07;1.33;;;19.30;99.90;;;;;;4848459;29;20212;-91
2023/05/16 13:32:42;;;;;;;2.90;1.40;;;19.30;99.90;;;;;;4864231;29;20313;-92
2023/05/16 13:35:11;;;;;;;2.80;1.37;;;19.40;99.90;;;;;;4850145;29;20224;-93
2023/05/16 13:37:40;;;;;;;3.17;1.27;;;19.50;99.90;;;;;;4851566;29;20235;-93
2023/05/16 13:40:11;;;;;;;2.40;1.43;;;19.50;99.90;;;;;;4851378;29;20227;-91
2023/05/16 13:42:40;;;;;;;1.83;1.50;;;19.40;99.90;;;;;;4850492;29;20188;-92
2023/05/16 13:45:09;;;;;;;2.07;1.50;;;19.40;99.90;;;;;;4850188;29;20218;-91
2023/05/16 13:47:38;;;;;;;1.60;1.50;;;19.50;99.90;;;;;;4848846;29;20608;-92
2023/05/16 13:50:09;;;;;;;3.60;1.60;;;19.60;99.90;;;;;;4848581;29;20301;-92
2023/05/16 13:52:38;;;;;;;1.83;1.23;;;19.90;99.90;;;;;;4848205;29;20260;-93
2023/05/16 13:55:08;;;;;;;5.00;1.60;;;19.80;99.90;;;;;;4862718;29;20247;-93
2023/05/16 13:57:36;;;;;;;1.63;1.43;;;19.80;99.90;;;;;;4845974;29;20195;-93
2023/05/16 14:00:11;;;;;;;2.73;1.50;;;19.60;99.90;;;;;;4846586;29;20259;-92
2023/05/16 14:02:43;;;;;;;3.77;1.40;;;19.20;99.90;;;;;;4846302;29;20694;-92
2023/05/16 14:05:13;;;;;;;2.70;1.20;;;19.10;99.90;;;;;;4846272;29;20574;-91
2023/05/16 14:07:42;;;;;;;1.20;1.10;;;19.00;99.90;;;;;;4846051;29;20345;-93